createdAt,value
2022-10-11T00:01:00.641Z,11.31
2022-10-11T00:03:35.829Z,11.30
2022-10-11T00:06:06.137Z,11.26
2022-10-11T00:08:35.343Z,11.17
2022-10-11T00:11:07.768Z,11.08
2022-10-11T00:13:35.943Z,11.00
2022-10-11T00:16:12.242Z,10.95
2022-10-11T00:18:40.305Z,10.89
2022-10-11T00:21:12.624Z,10.81
2022-10-11T00:23:40.899Z,10.77
2022-10-11T00:26:12.347Z,10.73
2022-10-11T00:28:41.863Z,10.68
2022-10-11T00:31:13.620Z,10.61
2022-10-11T00:33:41.944Z,10.56
2022-10-11T00:36:13.749Z,10.52
2022-10-11T00:38:41.824Z,10.48
2022-10-11T00:41:10.824Z,10.42
2022-10-11T00:43:39.411Z,10.38
2022-10-11T00:46:30.845Z,10.34
2022-10-11T00:49:13.474Z,10.27
2022-10-11T00:51:47.613Z,10.21
2022-10-11T00:54:19.447Z,10.16
2022-10-11T00:56:54.124Z,10.09
2022-10-11T00:59:29.552Z,10.01
2022-10-11T01:01:57.822Z,9.96
2022-10-11T01:04:26.489Z,9.93
2022-10-11T01:06:55.133Z,9.91
2022-10-11T01:09:24.084Z,9.89
2022-10-11T01:11:55.810Z,9.87
2022-10-11T01:15:06.486Z,9.86
2022-10-11T01:18:26.888Z,9.85
2022-10-11T01:21:16.521Z,9.82
2022-10-11T01:24:14.365Z,9.79
2022-10-11T01:27:07.228Z,9.76
2022-10-11T01:29:59.167Z,9.73
2022-10-11T01:32:48.727Z,9.71
2022-10-11T01:35:39.220Z,9.70
2022-10-11T01:38:42.441Z,9.70
2022-10-11T01:41:21.588Z,9.67
2022-10-11T01:43:54.899Z,9.68
2022-10-11T01:46:24.334Z,9.69
2022-10-11T01:48:56.312Z,9.68
2022-10-11T01:51:36.080Z,9.66
2022-10-11T01:54:56.594Z,9.66
2022-10-11T01:57:35.302Z,9.63
2022-10-11T02:00:19.736Z,9.63
2022-10-11T02:03:14.473Z,9.61
2022-10-11T02:06:04.176Z,9.58
2022-10-11T02:09:16.701Z,9.70
2022-10-11T02:11:44.964Z,9.81
2022-10-11T02:14:20.650Z,9.85
2022-10-11T02:17:04.224Z,9.91
2022-10-11T02:19:38.890Z,9.95
2022-10-11T02:22:18.300Z,9.96
2022-10-11T02:24:50.475Z,10.00
2022-10-11T02:27:23.754Z,10.02
2022-10-11T02:29:55.207Z,10.05
2022-10-11T02:32:25.587Z,10.07
2022-10-11T02:35:00.628Z,10.05
2022-10-11T02:37:37.599Z,10.03
2022-10-11T02:40:42.786Z,10.01
2022-10-11T02:43:23.870Z,10.04
2022-10-11T02:45:59.532Z,10.06
2022-10-11T02:48:29.561Z,10.09
2022-10-11T02:50:58.505Z,10.12
2022-10-11T02:53:27.108Z,10.11
2022-10-11T02:55:56.211Z,10.12
2022-10-11T02:58:24.889Z,10.12
2022-10-11T03:00:52.995Z,10.13
2022-10-11T03:03:21.061Z,10.14
2022-10-11T03:05:49.277Z,10.14
2022-10-11T03:08:17.674Z,10.14
2022-10-11T03:10:45.737Z,10.17
2022-10-11T03:13:17.896Z,10.19
2022-10-11T03:16:02.392Z,10.19
2022-10-11T03:18:31.707Z,10.18
2022-10-11T03:21:00.044Z,10.18
2022-10-11T03:23:28.226Z,10.19
2022-10-11T03:25:56.408Z,10.20
2022-10-11T03:28:24.686Z,10.20
2022-10-11T03:30:53.179Z,10.21
2022-10-11T03:33:21.238Z,10.22
2022-10-11T03:35:50.175Z,10.23
2022-10-11T03:38:21.834Z,10.24
2022-10-11T03:40:50.608Z,10.25
2022-10-11T03:43:18.634Z,10.26
2022-10-11T03:45:46.815Z,10.28
2022-10-11T03:48:15.054Z,10.28
2022-10-11T03:50:43.081Z,10.26
2022-10-11T03:53:11.499Z,10.26
2022-10-11T03:55:42.803Z,10.25
2022-10-11T03:58:10.859Z,10.22
2022-10-11T04:00:39.642Z,10.21
2022-10-11T04:03:07.651Z,10.21
2022-10-11T04:05:35.680Z,10.22
2022-10-11T04:08:06.344Z,10.21
2022-10-11T04:10:37.820Z,10.22
2022-10-11T04:13:06.193Z,10.21
2022-10-11T04:15:34.327Z,10.23
2022-10-11T04:18:02.341Z,10.21
2022-10-11T04:20:30.400Z,10.22
2022-10-11T04:22:58.464Z,10.23
2022-10-11T04:25:26.847Z,10.22
2022-10-11T04:27:54.944Z,10.21
2022-10-11T04:30:23.071Z,10.18
2022-10-11T04:32:51.096Z,10.18
2022-10-11T04:35:19.123Z,10.16
2022-10-11T04:37:47.264Z,10.14
2022-10-11T04:40:15.280Z,10.11
2022-10-11T04:42:43.353Z,10.07
2022-10-11T04:45:11.488Z,10.07
2022-10-11T04:47:41.106Z,10.08
2022-10-11T04:50:09.219Z,10.11
2022-10-11T04:52:37.323Z,10.13
2022-10-11T04:55:06.174Z,10.14
2022-10-11T04:57:34.156Z,10.15
2022-10-11T05:00:03.640Z,10.16
2022-10-11T05:02:31.806Z,10.18
2022-10-11T05:04:59.868Z,10.19
2022-10-11T05:07:27.922Z,10.18
2022-10-11T05:09:55.904Z,10.15
2022-10-11T05:12:24.374Z,10.13
2022-10-11T05:14:52.505Z,10.14
2022-10-11T05:17:20.526Z,10.16
2022-10-11T05:19:48.603Z,10.17
2022-10-11T05:22:16.904Z,10.16
2022-10-11T05:24:45.063Z,10.14
2022-10-11T05:27:13.095Z,10.05
2022-10-11T05:29:41.133Z,9.97
2022-10-11T05:32:09.253Z,9.94
2022-10-11T05:34:37.271Z,9.91
2022-10-11T05:37:05.292Z,9.86
2022-10-11T05:39:33.267Z,9.79
2022-10-11T05:42:01.309Z,9.71
2022-10-11T05:44:29.353Z,9.65
2022-10-11T05:46:57.435Z,9.60
2022-10-11T05:49:25.605Z,9.55
2022-10-11T05:51:53.604Z,9.51
2022-10-11T05:54:22.528Z,9.47
2022-10-11T05:56:50.560Z,9.41
2022-10-11T05:59:18.585Z,9.38
2022-10-11T06:01:46.627Z,9.32
2022-10-11T06:04:16.533Z,9.28
2022-10-11T06:06:45.080Z,9.26
2022-10-11T06:09:13.332Z,9.24
2022-10-11T06:11:42.463Z,9.22
2022-10-11T06:14:11.543Z,9.22
2022-10-11T06:16:39.517Z,9.24
2022-10-11T06:19:07.624Z,9.22
2022-10-11T06:21:35.790Z,9.21
2022-10-11T06:24:04.162Z,9.20
2022-10-11T06:26:32.327Z,9.20
2022-10-11T06:29:00.460Z,9.20
2022-10-11T06:31:28.596Z,9.18
2022-10-11T06:33:58.785Z,9.18
2022-10-11T06:36:27.449Z,9.19
2022-10-11T06:38:55.828Z,9.21
2022-10-11T06:41:29.873Z,9.23
2022-10-11T06:43:58.208Z,9.32
2022-10-11T06:46:27.738Z,9.41
2022-10-11T06:48:56.524Z,9.50
2022-10-11T06:51:25.551Z,9.61
2022-10-11T06:53:56.805Z,9.71
2022-10-11T06:56:30.297Z,9.82
2022-10-11T06:58:59.680Z,9.92
2022-10-11T07:01:28.085Z,10.04
2022-10-11T07:03:58.790Z,10.14
2022-10-11T07:06:29.531Z,10.23
2022-10-11T07:09:00.643Z,10.30
2022-10-11T07:11:29.208Z,10.40
2022-10-11T07:14:01.309Z,10.48
2022-10-11T07:16:29.440Z,10.56
2022-10-11T07:19:01.130Z,10.66
2022-10-11T07:21:32.139Z,10.76
2022-10-11T07:24:01.359Z,10.84
2022-10-11T07:26:35.237Z,10.91
2022-10-11T07:29:07.978Z,10.96
2022-10-11T07:31:39.558Z,11.02
2022-10-11T07:34:08.389Z,11.08
2022-10-11T07:36:37.092Z,11.11
2022-10-11T07:39:07.682Z,11.15
2022-10-11T07:41:38.179Z,11.20
2022-10-11T07:44:08.746Z,11.26
2022-10-11T07:46:36.734Z,11.27
2022-10-11T07:49:04.771Z,11.31
2022-10-11T07:51:32.988Z,11.37
2022-10-11T07:54:06.150Z,11.43
2022-10-11T07:56:36.907Z,11.50
2022-10-11T07:59:05.033Z,11.60
2022-10-11T08:01:33.338Z,11.69
2022-10-11T08:04:01.527Z,11.78
2022-10-11T08:06:32.648Z,11.90
2022-10-11T08:09:02.102Z,12.01
2022-10-11T08:11:34.141Z,12.12
2022-10-11T08:14:08.430Z,12.21
2022-10-11T08:16:38.928Z,12.30
2022-10-11T08:19:07.581Z,12.37
2022-10-11T08:21:35.931Z,12.42
2022-10-11T08:24:06.118Z,12.40
2022-10-11T08:26:34.984Z,12.38
2022-10-11T08:29:04.002Z,12.37
2022-10-11T08:31:34.070Z,12.37
2022-10-11T08:34:02.776Z,12.39
2022-10-11T08:36:30.911Z,12.39
2022-10-11T08:38:59.394Z,12.41
2022-10-11T08:41:54.475Z,12.40
2022-10-11T08:44:58.420Z,12.37
2022-10-11T08:47:31.193Z,12.33
2022-10-11T08:49:59.979Z,12.31
2022-10-11T08:52:53.667Z,12.32
2022-10-11T08:55:38.068Z,12.31
2022-10-11T08:58:06.313Z,12.31
2022-10-11T09:00:38.191Z,12.33
2022-10-11T09:03:37.300Z,12.35
2022-10-11T09:06:26.056Z,12.38
2022-10-11T09:09:31.743Z,12.44
2022-10-11T09:12:14.780Z,12.51
2022-10-11T09:15:04.237Z,12.58
2022-10-11T09:17:48.246Z,12.66
2022-10-11T09:20:46.063Z,12.73
2022-10-11T09:23:54.182Z,12.79
2022-10-11T09:26:29.809Z,12.84
2022-10-11T09:29:22.698Z,12.89
2022-10-11T09:31:56.064Z,12.94
2022-10-11T09:34:32.448Z,12.99
2022-10-11T09:37:46.021Z,13.04
2022-10-11T09:40:32.177Z,13.08
2022-10-11T09:43:00.217Z,13.11
2022-10-11T09:45:28.464Z,13.15
2022-10-11T09:48:05.292Z,13.16
2022-10-11T09:50:33.513Z,13.19
2022-10-11T09:53:05.022Z,13.22
2022-10-11T09:55:39.522Z,13.26
2022-10-11T09:58:36.015Z,13.32
2022-10-11T10:01:11.237Z,13.38
2022-10-11T10:03:42.982Z,13.42
2022-10-11T10:06:18.281Z,13.47
2022-10-11T10:08:47.260Z,13.53
2022-10-11T10:11:15.464Z,13.57
2022-10-11T10:13:52.218Z,13.61
2022-10-11T10:16:30.799Z,13.68
2022-10-11T10:19:05.550Z,13.72
2022-10-11T10:21:45.601Z,13.76
2022-10-11T10:24:41.378Z,13.80
2022-10-11T10:27:21.080Z,13.85
2022-10-11T10:30:19.433Z,13.91
2022-10-11T10:33:10.898Z,14.01
2022-10-11T10:35:58.161Z,14.09
2022-10-11T10:38:59.213Z,14.16
2022-10-11T10:41:27.307Z,14.21
2022-10-11T10:43:59.242Z,14.29
2022-10-11T10:46:54.634Z,14.33
2022-10-11T10:49:55.334Z,14.38
2022-10-11T10:52:53.001Z,14.44
2022-10-11T10:55:42.440Z,14.47
2022-10-11T10:58:36.663Z,14.51
2022-10-11T11:01:22.927Z,14.54
2022-10-11T11:04:27.902Z,14.58
2022-10-11T11:07:23.302Z,14.66
2022-10-11T11:10:07.351Z,14.73
2022-10-11T11:13:16.692Z,14.77
2022-10-11T11:16:36.869Z,14.81
2022-10-11T11:19:21.930Z,14.86
2022-10-11T11:22:09.223Z,14.91
2022-10-11T11:25:01.636Z,14.96
2022-10-11T11:27:47.791Z,15.01
2022-10-11T11:30:26.380Z,15.04
2022-10-11T11:33:09.587Z,15.09
2022-10-11T11:35:54.347Z,15.15
2022-10-11T11:38:51.069Z,15.19
2022-10-11T11:41:33.549Z,15.24
2022-10-11T11:44:27.254Z,15.28
2022-10-11T11:47:11.084Z,15.33
2022-10-11T11:49:48.232Z,15.38
2022-10-11T11:52:28.433Z,15.41
2022-10-11T11:55:33.398Z,15.47
2022-10-11T11:58:25.926Z,15.53
2022-10-11T12:01:21.624Z,15.63
2022-10-11T12:03:55.256Z,15.73
2022-10-11T12:06:32.340Z,15.85
2022-10-11T12:09:22.475Z,15.97
2022-10-11T12:12:03.062Z,16.02
2022-10-11T12:14:34.303Z,16.09
2022-10-11T12:17:14.258Z,16.14
2022-10-11T12:20:12.133Z,16.17
2022-10-11T12:22:49.320Z,16.23
2022-10-11T12:25:23.462Z,16.30
2022-10-11T12:27:54.742Z,16.40
2022-10-11T12:30:46.919Z,16.48
2022-10-11T12:33:21.489Z,16.56
2022-10-11T12:35:55.811Z,16.63
2022-10-11T12:38:40.093Z,16.70
2022-10-11T12:41:13.342Z,16.76
2022-10-11T12:43:50.540Z,16.79
2022-10-11T12:46:33.678Z,16.83
2022-10-11T12:49:26.602Z,16.87
2022-10-11T12:52:05.371Z,16.92
2022-10-11T12:55:23.920Z,16.96
2022-10-11T12:58:29.423Z,16.97
2022-10-11T13:00:58.053Z,17.00
2022-10-11T13:03:32.567Z,17.05
2022-10-11T13:06:22.063Z,17.07
2022-10-11T13:08:57.073Z,17.09
2022-10-11T13:11:31.224Z,17.13
2022-10-11T13:14:10.728Z,17.13
2022-10-11T13:17:00.020Z,17.13
2022-10-11T13:19:29.427Z,17.13
2022-10-11T13:22:02.848Z,17.11
2022-10-11T13:24:40.071Z,17.09
2022-10-11T13:27:15.707Z,17.08
2022-10-11T13:29:45.928Z,17.05
2022-10-11T13:32:19.691Z,16.98
2022-10-11T13:37:29.933Z,16.89
2022-10-11T13:39:58.779Z,16.84
2022-10-11T13:42:32.264Z,16.80
2022-10-11T13:45:01.029Z,16.74
2022-10-11T13:47:31.958Z,16.68
2022-10-11T13:50:15.826Z,16.63
2022-10-11T13:53:01.879Z,16.58
2022-10-11T13:55:42.489Z,16.53
2022-10-11T13:58:18.919Z,16.47
2022-10-11T14:01:00.646Z,16.42
2022-10-11T14:03:45.805Z,16.39
2022-10-11T14:06:14.125Z,16.36
2022-10-11T14:08:42.125Z,16.33
2022-10-11T14:11:12.685Z,16.29
2022-10-11T14:13:44.485Z,16.26
2022-10-11T14:16:18.600Z,16.22
2022-10-11T14:19:10.028Z,16.19
2022-10-11T14:21:45.712Z,16.17
2022-10-11T14:24:14.699Z,16.15
2022-10-11T14:26:46.666Z,16.13
2022-10-11T14:29:36.038Z,16.12
2022-10-11T14:32:20.720Z,16.10
2022-10-11T14:34:49.381Z,16.09
2022-10-11T14:37:18.388Z,16.07
2022-10-11T14:39:47.758Z,16.06
2022-10-11T14:42:15.805Z,16.04
2022-10-11T14:44:43.969Z,16.03
2022-10-11T14:47:18.189Z,16.02
2022-10-11T14:49:46.244Z,16.00
2022-10-11T14:52:14.520Z,15.98
2022-10-11T14:54:42.499Z,15.99
2022-10-11T14:57:12.504Z,15.99
2022-10-11T14:59:40.592Z,15.99
2022-10-11T15:02:11.776Z,15.99
2022-10-11T15:04:39.913Z,15.99
2022-10-11T15:07:07.912Z,15.98
2022-10-11T15:09:35.986Z,15.96
2022-10-11T15:12:04.480Z,15.95
2022-10-11T15:14:32.497Z,15.95
2022-10-11T15:17:00.499Z,15.94
2022-10-11T15:19:28.606Z,15.93
2022-10-11T15:21:57.050Z,15.89
2022-10-11T15:24:25.345Z,15.87
2022-10-11T15:26:53.278Z,15.85
2022-10-11T15:29:24.049Z,15.82
2022-10-11T15:31:52.038Z,15.80
2022-10-11T15:34:19.993Z,15.77
2022-10-11T15:36:49.940Z,15.75
2022-10-11T15:39:30.543Z,15.72
2022-10-11T15:41:58.805Z,15.69
2022-10-11T15:44:27.264Z,15.67
2022-10-11T15:46:55.314Z,15.64
2022-10-11T15:49:23.355Z,15.63
2022-10-11T15:51:51.283Z,15.62
2022-10-11T15:54:19.257Z,15.61
2022-10-11T15:56:47.741Z,15.58
2022-10-11T15:59:15.773Z,15.55
2022-10-11T16:01:43.779Z,15.52
2022-10-11T16:04:11.810Z,15.51
2022-10-11T16:06:41.016Z,15.48
2022-10-11T16:09:08.999Z,15.45
2022-10-11T16:11:36.989Z,15.43
2022-10-11T16:14:04.950Z,15.40
2022-10-11T16:16:32.999Z,15.36
2022-10-11T16:19:01.038Z,15.31
2022-10-11T16:21:29.104Z,15.27
2022-10-11T16:23:57.157Z,15.23
2022-10-11T16:26:25.189Z,15.19
2022-10-11T16:28:53.271Z,15.14
2022-10-11T16:31:21.345Z,15.10
2022-10-11T16:33:50.223Z,15.05
2022-10-11T16:36:40.311Z,14.98
2022-10-11T16:39:18.231Z,14.93
2022-10-11T16:41:47.559Z,14.88
2022-10-11T16:44:19.837Z,14.85
2022-10-11T16:46:49.190Z,14.89
2022-10-11T16:49:22.001Z,14.93
2022-10-11T16:51:52.924Z,14.96
2022-10-11T16:54:21.822Z,15.00
2022-10-11T16:56:50.238Z,15.03
2022-10-11T16:59:18.368Z,15.06
2022-10-11T17:01:46.632Z,15.10
2022-10-11T17:04:14.871Z,15.14
2022-10-11T17:06:43.958Z,15.17
2022-10-11T17:09:12.548Z,15.21
2022-10-11T17:11:40.813Z,15.24
2022-10-11T17:14:11.009Z,15.27
2022-10-11T17:16:39.295Z,15.30
2022-10-11T17:19:16.073Z,15.33
2022-10-11T17:21:44.021Z,15.33
2022-10-11T17:24:11.975Z,15.34
2022-10-11T17:26:39.970Z,15.35
2022-10-11T17:29:12.313Z,15.37
2022-10-11T17:31:40.427Z,15.39
2022-10-11T17:34:11.772Z,15.43
2022-10-11T17:36:40.441Z,15.47
2022-10-11T17:39:15.640Z,15.50
2022-10-11T17:41:44.425Z,15.51
2022-10-11T17:44:12.991Z,15.50
2022-10-11T17:46:41.441Z,15.51
2022-10-11T17:49:09.558Z,15.52
2022-10-11T17:51:39.058Z,15.54
2022-10-11T17:54:12.394Z,15.57
2022-10-11T17:56:42.122Z,15.60
2022-10-11T17:59:17.180Z,15.61
2022-10-11T18:01:45.536Z,15.61
2022-10-11T18:04:16.766Z,15.61
2022-10-11T18:06:46.563Z,15.60
2022-10-11T18:09:17.305Z,15.59
2022-10-11T18:11:46.492Z,15.60
2022-10-11T18:14:15.801Z,15.61
2022-10-11T18:16:43.743Z,15.60
2022-10-11T18:19:13.417Z,15.59
2022-10-11T18:21:42.043Z,15.58
2022-10-11T18:24:16.458Z,15.57
2022-10-11T18:26:45.876Z,15.54
2022-10-11T18:29:14.247Z,15.53
2022-10-11T18:31:42.529Z,15.53
2022-10-11T18:34:12.976Z,15.52
2022-10-11T18:36:41.016Z,15.48
2022-10-11T18:39:13.313Z,15.42
2022-10-11T18:41:44.346Z,15.40
2022-10-11T18:44:14.977Z,15.37
2022-10-11T18:46:44.153Z,15.32
2022-10-11T18:49:13.424Z,15.27
2022-10-11T18:51:42.627Z,15.23
2022-10-11T18:54:14.084Z,15.20
2022-10-11T18:56:45.572Z,15.17
2022-10-11T18:59:13.566Z,15.13
2022-10-11T19:01:48.010Z,15.06
2022-10-11T19:04:16.327Z,15.04
2022-10-11T19:06:48.215Z,15.00
2022-10-11T19:09:22.716Z,14.95
2022-10-11T19:11:53.389Z,14.89
2022-10-11T19:14:25.851Z,14.83
2022-10-11T19:16:56.160Z,14.80
2022-10-11T19:19:29.497Z,14.76
2022-10-11T19:21:57.553Z,14.73
2022-10-11T19:24:29.208Z,14.70
2022-10-11T19:27:02.503Z,14.66
2022-10-11T19:29:31.843Z,14.62
2022-10-11T19:32:02.944Z,14.59
2022-10-11T19:34:32.608Z,14.57
2022-10-11T19:37:04.769Z,14.55
2022-10-11T19:39:32.864Z,14.52
2022-10-11T19:42:01.269Z,14.51
2022-10-11T19:44:29.845Z,14.50
2022-10-11T19:47:02.794Z,14.49
2022-10-11T19:49:33.625Z,14.47
2022-10-11T19:52:01.616Z,14.45
2022-10-11T19:54:29.962Z,14.43
2022-10-11T19:56:58.270Z,14.40
2022-10-11T19:59:28.048Z,14.39
2022-10-11T20:01:56.142Z,14.38
2022-10-11T20:07:12.405Z,14.35
2022-10-11T20:09:40.367Z,14.34
2022-10-11T20:12:08.760Z,14.33
2022-10-11T20:14:36.857Z,14.32
2022-10-11T20:17:04.898Z,14.31
2022-10-11T20:19:32.899Z,14.30
2022-10-11T20:22:01.760Z,14.29
2022-10-11T20:24:33.442Z,14.29
2022-10-11T20:27:04.791Z,14.28
2022-10-11T20:29:33.141Z,14.26
2022-10-11T20:32:01.129Z,14.24
2022-10-11T20:34:29.312Z,14.24
2022-10-11T20:36:57.273Z,14.22
2022-10-11T20:39:25.413Z,14.21
2022-10-11T20:41:53.583Z,14.20
2022-10-11T20:44:21.698Z,14.19
2022-10-11T20:46:49.836Z,14.19
2022-10-11T20:49:19.998Z,14.18
2022-10-11T20:51:48.458Z,14.18
2022-10-11T20:54:16.739Z,14.24
2022-10-11T20:56:44.914Z,14.31
2022-10-11T20:59:12.931Z,14.35
2022-10-11T21:01:41.948Z,14.38
2022-10-11T21:04:18.741Z,14.42
2022-10-11T21:06:48.787Z,14.46
2022-10-11T21:09:17.535Z,14.49
2022-10-11T21:11:46.073Z,14.53
2022-10-11T21:14:14.335Z,14.54
2022-10-11T21:16:42.297Z,14.57
2022-10-11T21:19:15.038Z,14.59
2022-10-11T21:21:45.691Z,14.61
2022-10-11T21:24:16.457Z,14.62
2022-10-11T21:26:44.447Z,14.63
2022-10-11T21:29:12.433Z,14.65
2022-10-11T21:31:40.865Z,14.67
2022-10-11T21:34:08.862Z,14.68
2022-10-11T21:36:36.889Z,14.68
2022-10-11T21:39:04.859Z,14.69
2022-10-11T21:41:33.965Z,14.71
2022-10-11T21:44:01.981Z,14.74
2022-10-11T21:49:19.905Z,14.74
2022-10-11T21:51:48.298Z,14.73
2022-10-11T21:54:16.899Z,14.74
2022-10-11T21:56:44.942Z,14.76
2022-10-11T21:59:13.007Z,14.75
2022-10-11T22:01:41.922Z,14.74
2022-10-11T22:04:11.546Z,14.75
2022-10-11T22:06:40.397Z,14.77
2022-10-11T22:09:08.918Z,14.77
2022-10-11T22:11:37.316Z,14.75
2022-10-11T22:14:05.697Z,14.75
2022-10-11T22:16:35.130Z,14.74
2022-10-11T22:19:04.129Z,14.76
2022-10-11T22:21:32.382Z,14.77
2022-10-11T22:24:00.316Z,14.77
2022-10-11T22:26:30.813Z,14.77
2022-10-11T22:29:00.211Z,14.77
2022-10-11T22:31:30.197Z,14.77
2022-10-11T22:34:00.928Z,14.78
2022-10-11T22:36:33.662Z,14.78
2022-10-11T22:39:07.537Z,14.76
2022-10-11T22:41:36.447Z,14.75
2022-10-11T22:44:05.238Z,14.77
2022-10-11T22:46:33.272Z,14.76
2022-10-11T22:49:01.291Z,14.75
2022-10-11T22:51:29.262Z,14.75
2022-10-11T22:53:57.245Z,14.74
2022-10-11T22:56:25.304Z,14.74
2022-10-11T22:58:53.271Z,14.73
2022-10-11T23:01:21.382Z,14.73
2022-10-11T23:03:50.631Z,14.71
2022-10-11T23:06:18.997Z,14.67
2022-10-11T23:08:47.001Z,14.61
2022-10-11T23:11:15.190Z,14.54
2022-10-11T23:13:43.173Z,14.51
2022-10-11T23:16:13.065Z,14.46
2022-10-11T23:18:41.626Z,14.42
2022-10-11T23:21:09.765Z,14.38
2022-10-11T23:23:39.682Z,14.33
2022-10-11T23:26:12.719Z,14.28
2022-10-11T23:28:42.266Z,14.23
2022-10-11T23:31:18.392Z,14.19
2022-10-11T23:33:47.522Z,14.16
2022-10-11T23:36:24.587Z,14.12
2022-10-11T23:38:57.686Z,14.09
2022-10-11T23:41:29.596Z,14.04
2022-10-11T23:43:58.283Z,14.00
2022-10-11T23:46:26.218Z,13.95
2022-10-11T23:48:54.696Z,13.90
2022-10-11T23:51:22.689Z,13.87
2022-10-11T23:53:50.716Z,13.84
2022-10-11T23:56:18.681Z,13.79
2022-10-11T23:58:46.985Z,13.76
